Time;durP1;ratioP1;P1;durP2;ratioP2;P2;SDS_P1;SDS_P2;PMS_P1;PMS_P2;Temp;Humidity;BMP_temperature;BMP_pressure;BME280_temperature;BME280_humidity;BME280_pressure;Samples;Min_cycle;Max_cycle;Signal;HPM_P1;HPM_P2
2021/05/09 00:02:28;;;;;;;22.25;12.60;;;;;;;7.76;55.70;100648.70;1815362;77;22365;-67
2021/05/09 00:05:09;;;;;;;24.43;13.30;;;;;;;7.76;55.72;100646.05;1815511;77;23333;-65
2021/05/09 00:10:41;;;;;;;23.00;13.13;;;;;;;7.80;55.79;100644.28;1792320;77;22351;-65
2021/05/09 00:13:20;;;;;;;22.15;12.45;;;;;;;7.79;55.87;100638.62;1815568;77;22388;-65
2021/05/09 00:15:59;;;;;;;18.73;11.88;;;;;;;7.79;55.90;100637.78;1810907;78;23117;-65
2021/05/09 00:18:38;;;;;;;23.07;13.70;;;;;;;7.78;55.92;100636.94;1852130;77;22422;-65
2021/05/09 00:21:18;;;;;;;20.32;12.68;;;;;;;7.79;55.97;100633.31;1814481;77;22414;-65
2021/05/09 00:23:58;;;;;;;22.60;11.93;;;;;;;7.79;56.00;100632.47;1810944;78;22402;-65
2021/05/09 00:26:42;;;;;;;21.75;12.80;;;;;;;7.79;56.04;100631.14;1810785;78;22657;-67
2021/05/09 00:29:21;;;;;;;30.17;16.52;;;;;;;7.79;56.08;100632.47;1815544;77;22419;-65
2021/05/09 00:32:01;;;;;;;26.95;15.13;;;;;;;7.78;56.11;100633.44;1851501;77;22705;-65
2021/05/09 00:34:39;;;;;;;24.00;14.98;;;;;;;7.77;56.18;100631.80;1815857;77;22761;-65
2021/05/09 00:37:17;;;;;;;27.20;15.48;;;;;;;7.76;56.20;100620.34;1815696;77;22579;-65
2021/05/09 00:39:55;;;;;;;23.73;14.30;;;;;;;7.76;56.27;100620.82;1852079;77;22471;-67
2021/05/09 00:42:36;;;;;;;26.00;15.23;;;;;;;7.78;56.33;100621.50;1851123;77;22583;-67
2021/05/09 00:45:16;;;;;;;23.20;13.85;;;;;;;7.78;56.37;100614.86;1815206;77;23395;-67
2021/05/09 00:47:55;;;;;;;20.60;12.60;;;;;;;7.81;56.43;100614.59;1852149;77;22377;-65
2021/05/09 00:50:34;;;;;;;21.42;13.80;;;;;;;7.81;56.46;100617.25;1814757;77;22746;-65
2021/05/09 00:53:22;;;;;;;24.47;12.45;;;;;;;7.84;56.49;100614.30;1831473;77;22433;-67
2021/05/09 00:56:01;;;;;;;20.43;13.53;;;;;;;7.86;56.53;100614.97;1814743;77;22489;-65
2021/05/09 00:58:44;;;;;;;20.88;13.05;;;;;;;7.85;56.58;100607.98;1810988;78;22550;-65
2021/05/09 01:01:24;;;;;;;20.62;11.93;;;;;;;7.85;56.62;100607.98;1796744;79;23071;-65
2021/05/09 01:04:03;;;;;;;21.48;13.30;;;;;;;7.87;56.66;100606.87;1851947;77;22669;-65
2021/05/09 01:06:43;;;;;;;19.42;11.63;;;;;;;7.87;56.68;100603.37;1815114;77;22662;-65
2021/05/09 01:09:22;;;;;;;19.32;12.82;;;;;;;7.88;56.73;100601.08;1796184;77;22553;-67
2021/05/09 01:12:12;;;;;;;19.37;12.88;;;;;;;7.91;56.75;100596.80;1851114;77;22377;-67
2021/05/09 01:14:52;;;;;;;20.35;13.15;;;;;;;7.92;56.80;100595.79;1810862;78;22407;-65
2021/05/09 01:17:38;;;;;;;20.77;14.07;;;;;;;7.94;56.82;100595.17;1795241;78;28004;-68
2021/05/09 01:20:23;;;;;;;21.23;13.32;;;;;;;7.99;56.84;100593.72;1815353;77;22482;-67
2021/05/09 01:23:03;;;;;;;20.32;11.83;;;;;;;8.00;56.92;100591.91;1784806;77;23067;-65
2021/05/09 01:25:42;;;;;;;19.77;12.15;;;;;;;7.99;56.94;100591.55;1815440;77;22703;-65
2021/05/09 01:28:22;;;;;;;19.35;12.13;;;;;;;8.01;56.98;100590.94;1852084;77;22554;-65
2021/05/09 01:31:06;;;;;;;21.52;12.50;;;;;;;7.99;57.01;100581.77;1840459;77;22411;-67
2021/05/09 01:33:45;;;;;;;24.67;14.20;;;;;;;8.02;57.03;100572.70;1815387;77;22699;-65
2021/05/09 01:36:23;;;;;;;18.10;12.23;;;;;;;8.04;57.05;100565.40;1811153;78;22292;-65
2021/05/09 01:39:03;;;;;;;17.73;11.65;;;;;;;8.04;57.04;100567.56;1815607;77;23158;-65
2021/05/09 01:41:43;;;;;;;20.57;11.80;;;;;;;8.06;57.05;100565.27;1810649;77;23115;-67
2021/05/09 01:44:25;;;;;;;20.37;12.60;;;;;;;8.08;57.04;100558.81;1810979;78;22280;-65
2021/05/09 01:47:04;;;;;;;19.55;12.93;;;;;;;8.08;57.03;100557.48;1815416;77;22443;-65
2021/05/09 01:49:43;;;;;;;19.48;13.13;;;;;;;8.08;57.03;100558.81;1810963;77;22562;-65
2021/05/09 01:52:23;;;;;;;20.70;12.63;;;;;;;8.07;57.03;100561.11;1814771;77;22500;-65
2021/05/09 01:55:14;;;;;;;19.87;12.65;;;;;;;8.06;57.05;100558.11;1851923;77;23056;-65
2021/05/09 01:57:54;;;;;;;17.40;11.73;;;;;;;8.07;57.06;100555.80;1815456;77;22594;-64
2021/05/09 02:00:33;;;;;;;19.80;13.35;;;;;;;8.07;57.07;100543.85;1815580;77;22666;-67
2021/05/09 02:03:12;;;;;;;21.05;11.18;;;;;;;8.08;57.06;100549.52;1815557;77;22587;-65
2021/05/09 02:05:51;;;;;;;19.57;12.80;;;;;;;8.08;57.09;100548.19;1810934;78;22500;-67
2021/05/09 02:08:29;;;;;;;21.35;13.18;;;;;;;8.10;57.05;100553.33;1825403;77;23101;-65
2021/05/09 02:11:08;;;;;;;22.40;12.07;;;;;;;8.09;57.06;100548.54;1852181;77;22322;-65
2021/05/09 02:13:47;;;;;;;19.57;13.08;;;;;;;8.09;57.07;100543.72;1815610;77;22744;-65
2021/05/09 02:16:26;;;;;;;23.27;12.30;;;;;;;8.10;57.07;100547.53;1815570;77;22499;-68
2021/05/09 02:19:05;;;;;;;21.37;13.55;;;;;;;8.10;57.08;100547.53;1814967;77;22496;-65
2021/05/09 02:22:03;;;;;;;22.77;13.83;;;;;;;8.09;57.10;100555.18;1852141;77;22460;-67
2021/05/09 02:24:49;;;;;;;24.57;16.30;;;;;;;8.09;57.12;100557.83;1795140;78;28012;-67
2021/05/09 02:27:28;;;;;;;20.43;12.98;;;;;;;8.15;57.11;100549.25;1815228;77;23431;-65
2021/05/09 02:30:14;;;;;;;19.42;12.00;;;;;;;8.15;57.16;100539.12;1846137;77;22475;-67
2021/05/09 02:32:53;;;;;;;23.22;13.55;;;;;;;8.14;57.17;100536.95;1815283;77;22381;-65
2021/05/09 02:35:34;;;;;;;22.22;13.93;;;;;;;8.13;57.16;100535.27;1852139;77;22313;-65
2021/05/09 02:38:13;;;;;;;18.35;12.73;;;;;;;8.14;57.18;100534.30;1851527;77;22551;-65
2021/05/09 02:40:53;;;;;;;19.57;12.53;;;;;;;8.12;57.20;100532.78;1815349;77;23034;-65
2021/05/09 02:43:39;;;;;;;21.35;13.68;;;;;;;8.12;57.20;100531.45;1794982;78;28620;-68
2021/05/09 02:46:18;;;;;;;19.02;12.45;;;;;;;8.19;57.22;100529.38;1814428;77;22553;-65
2021/05/09 02:48:57;;;;;;;22.55;13.48;;;;;;;8.16;57.23;100520.39;1800142;79;22437;-65
2021/05/09 02:51:36;;;;;;;18.73;12.70;;;;;;;8.15;57.27;100528.00;1815743;77;22216;-65
2021/05/09 02:54:14;;;;;;;26.70;16.60;;;;;;;8.13;57.29;100527.30;1815786;77;22368;-65
2021/05/09 02:56:53;;;;;;;19.67;13.13;;;;;;;8.16;57.31;100523.53;1810823;78;22343;-68
2021/05/09 02:59:33;;;;;;;18.10;11.57;;;;;;;8.16;57.32;100515.08;1851546;77;22528;-65
2021/05/09 03:02:12;;;;;;;18.85;11.18;;;;;;;8.16;57.32;100519.06;1786426;77;22681;-65
2021/05/09 03:04:52;;;;;;;15.90;10.55;;;;;;;8.17;57.32;100510.08;1815365;77;22474;-65
2021/05/09 03:07:32;;;;;;;16.60;11.20;;;;;;;8.20;57.35;100504.45;1781440;77;22572;-65
2021/05/09 03:10:11;;;;;;;19.02;12.28;;;;;;;8.23;57.32;100498.03;1851402;77;22766;-65
2021/05/09 03:12:50;;;;;;;15.03;10.05;;;;;;;8.23;57.33;100501.53;1810806;77;23093;-65
2021/05/09 03:15:29;;;;;;;15.95;9.48;;;;;;;8.24;57.34;100502.33;1852285;77;23184;-65
2021/05/09 03:18:09;;;;;;;16.02;10.60;;;;;;;8.24;57.35;100501.84;1815432;77;22370;-65
2021/05/09 03:20:49;;;;;;;16.10;10.20;;;;;;;8.26;57.35;100501.22;1852278;77;23135;-65
2021/05/09 03:23:29;;;;;;;15.20;10.40;;;;;;;8.29;57.35;100500.10;1815612;77;22704;-65
2021/05/09 03:26:07;;;;;;;14.43;9.38;;;;;;;8.30;57.37;100497.80;1852260;77;22428;-65
2021/05/09 03:28:52;;;;;;;18.37;10.53;;;;;;;8.31;57.38;100504.75;1850610;77;22498;-68
2021/05/09 03:31:31;;;;;;;15.32;9.90;;;;;;;8.31;57.38;100507.41;1815453;77;23102;-65
2021/05/09 03:34:15;;;;;;;17.40;11.28;;;;;;;8.32;57.41;100503.28;1851909;77;22550;-67
2021/05/09 03:36:55;;;;;;;18.52;11.10;;;;;;;8.33;57.41;100498.33;1810852;78;23167;-65
2021/05/09 03:39:34;;;;;;;18.07;11.38;;;;;;;8.33;57.42;100503.64;1814770;77;22426;-65
2021/05/09 03:42:14;;;;;;;15.20;9.13;;;;;;;8.34;57.45;100501.30;1815533;77;22463;-65
2021/05/09 03:44:54;;;;;;;13.83;8.48;;;;;;;8.32;57.48;100497.97;1810984;77;22406;-65
2021/05/09 03:47:33;;;;;;;15.35;8.20;;;;;;;8.34;57.51;100503.95;1815543;77;22191;-65
2021/05/09 03:50:12;;;;;;;13.10;7.17;;;;;;;8.36;57.51;100511.30;1851315;77;22472;-65
2021/05/09 03:52:56;;;;;;;15.55;8.48;;;;;;;8.40;57.52;100503.86;1851826;77;22482;-67
2021/05/09 03:55:41;;;;;;;15.13;7.45;;;;;;;8.47;57.53;100500.92;1852019;77;22619;-67
2021/05/09 03:58:21;;;;;;;13.40;7.97;;;;;;;8.53;57.55;100507.78;1815506;77;22366;-65
2021/05/09 04:00:59;;;;;;;15.05;8.15;;;;;;;8.67;57.54;100512.20;1815713;77;22485;-65
2021/05/09 04:03:37;;;;;;;11.85;8.05;;;;;;;8.76;57.50;100508.63;1852268;77;22511;-65
2021/05/09 04:06:22;;;;;;;11.95;7.37;;;;;;;8.83;57.46;100505.69;1812977;77;22555;-68
2021/05/09 04:09:01;;;;;;;13.93;7.92;;;;;;;8.90;57.43;100513.38;1851266;77;22323;-67
2021/05/09 04:11:39;;;;;;;12.20;7.03;;;;;;;9.34;57.63;100513.62;1851930;77;22482;-68
2021/05/09 04:14:18;;;;;;;9.73;6.28;;;;;;;11.00;57.67;100503.22;1811110;78;22682;-65
2021/05/09 04:16:57;;;;;;;10.25;6.72;;;;;;;11.25;56.55;100504.83;1814871;77;22442;-65
2021/05/09 04:19:36;;;;;;;13.43;7.80;;;;;;;10.68;56.28;100500.09;1810643;78;22399;-65
2021/05/09 04:22:22;;;;;;;13.15;8.18;;;;;;;10.34;56.28;100496.28;1852043;77;22683;-68
2021/05/09 04:25:01;;;;;;;13.32;6.83;;;;;;;10.65;56.38;100498.27;1815608;77;22384;-66
2021/05/09 04:27:58;;;;;;;11.78;5.95;;;;;;;11.44;56.19;100494.23;1848460;77;22311;-68
2021/05/09 04:30:37;;;;;;;11.10;5.80;;;;;;;11.93;55.64;100494.34;1815683;77;22309;-68
2021/05/09 04:33:17;;;;;;;12.80;6.95;;;;;;;12.38;55.22;100488.20;1815378;77;22428;-65
2021/05/09 04:35:57;;;;;;;10.98;6.67;;;;;;;12.39;54.67;100483.16;1852039;77;22747;-65
2021/05/09 04:38:37;;;;;;;11.33;7.53;;;;;;;11.71;54.29;100483.64;1814486;77;22482;-65
2021/05/09 04:41:16;;;;;;;11.45;6.90;;;;;;;11.07;54.28;100484.69;1810973;78;22334;-65
2021/05/09 04:43:57;;;;;;;11.18;6.97;;;;;;;10.74;54.39;100489.24;1810832;78;22343;-68
2021/05/09 04:46:36;;;;;;;10.82;6.30;;;;;;;11.05;54.28;100486.17;1810753;78;22409;-65
2021/05/09 04:49:16;;;;;;;18.50;6.50;;;;;;;11.58;53.94;100487.32;1852159;77;22246;-66
2021/05/09 04:51:55;;;;;;;9.23;6.47;;;;;;;11.93;53.84;100486.33;1852259;77;22386;-66
2021/05/09 04:54:34;;;;;;;12.07;7.15;;;;;;;12.05;53.84;100484.09;1815623;77;22375;-66
2021/05/09 04:57:12;;;;;;;13.93;7.75;;;;;;;12.25;53.84;100486.61;1814851;77;22381;-66
2021/05/09 04:59:50;;;;;;;11.03;6.85;;;;;;;12.33;53.80;100485.22;1815435;77;22949;-68
2021/05/09 05:02:29;;;;;;;15.93;8.23;;;;;;;12.58;53.71;100480.51;1815453;77;22750;-66
2021/05/09 05:05:08;;;;;;;10.30;6.60;;;;;;;12.76;53.53;100482.85;1812436;77;22351;-68
2021/05/09 05:08:07;;;;;;;11.53;5.97;;;;;;;12.95;53.33;100483.14;1851004;77;22577;-68
2021/05/09 05:10:46;;;;;;;10.98;6.95;;;;;;;12.91;53.08;100475.69;1815198;77;23137;-68
2021/05/09 05:13:27;;;;;;;8.88;5.85;;;;;;;13.11;52.97;100470.14;1810641;78;22408;-68
2021/05/09 05:16:07;;;;;;;9.98;5.85;;;;;;;13.15;52.68;100476.79;1850315;77;22233;-69
2021/05/09 05:18:46;;;;;;;9.65;5.47;;;;;;;13.31;52.46;100472.57;1802058;77;22544;-69
2021/05/09 05:21:25;;;;;;;11.70;5.87;;;;;;;13.39;52.23;100467.13;1815887;77;22535;-69
2021/05/09 05:24:05;;;;;;;9.08;6.20;;;;;;;13.44;52.13;100466.04;1815342;77;23037;-69
2021/05/09 05:26:43;;;;;;;11.65;6.92;;;;;;;13.53;51.94;100459.25;1810834;78;22437;-67
2021/05/09 05:29:29;;;;;;;12.13;6.70;;;;;;;13.80;51.78;100469.25;1851776;77;22597;-68
2021/05/09 05:32:09;;;;;;;8.85;6.33;;;;;;;13.96;51.56;100462.33;1807903;77;22819;-69
2021/05/09 05:34:47;;;;;;;10.25;5.62;;;;;;;14.18;51.42;100465.33;1810595;78;22398;-69
2021/05/09 05:37:26;;;;;;;10.55;5.35;;;;;;;14.50;51.33;100474.23;1815792;77;22420;-69
2021/05/09 05:40:07;;;;;;;10.40;5.20;;;;;;;14.68;51.11;100456.81;1815399;77;22330;-69
2021/05/09 05:42:52;;;;;;;9.27;5.50;;;;;;;14.66;50.74;100458.88;1836117;77;28266;-69
2021/05/09 05:45:32;;;;;;;12.53;6.75;;;;;;;14.90;50.09;100459.77;1814497;77;22518;-69
2021/05/09 05:48:12;;;;;;;22.87;11.12;;;;;;;14.69;49.67;100461.17;1815426;77;22571;-69
2021/05/09 05:50:51;;;;;;;8.80;5.20;;;;;;;14.45;49.58;100461.92;1811044;78;22422;-69
2021/05/09 05:53:29;;;;;;;8.05;5.00;;;;;;;14.30;49.52;100457.61;1810374;78;23276;-69
2021/05/09 05:56:08;;;;;;;9.38;4.87;;;;;;;14.29;49.48;100463.48;1815568;77;22467;-69
2021/05/09 05:58:47;;;;;;;8.63;5.05;;;;;;;14.55;49.47;100470.14;1807955;79;22390;-69
2021/05/09 06:01:25;;;;;;;7.62;5.00;;;;;;;14.83;49.45;100463.77;1815802;77;22384;-69
2021/05/09 06:04:04;;;;;;;7.85;4.60;;;;;;;14.82;49.26;100465.28;1814992;77;22522;-69
2021/05/09 06:06:44;;;;;;;6.37;4.60;;;;;;;14.58;49.18;100469.75;1815471;77;22372;-69
2021/05/09 06:09:29;;;;;;;8.33;4.95;;;;;;;14.22;49.10;100466.61;1810756;78;22469;-69
2021/05/09 06:12:08;;;;;;;6.80;4.47;;;;;;;14.22;49.21;100463.92;1815443;77;22420;-69
2021/05/09 06:14:47;;;;;;;8.85;5.60;;;;;;;14.49;49.21;100455.11;1814693;77;22712;-69
2021/05/09 06:17:25;;;;;;;7.05;4.97;;;;;;;14.74;49.16;100462.77;1815701;77;22631;-69
2021/05/09 06:20:11;;;;;;;7.20;4.80;;;;;;;15.06;49.13;100462.14;1851953;77;22353;-69
2021/05/09 06:22:49;;;;;;;8.30;4.78;;;;;;;15.07;48.99;100459.78;1814983;77;22465;-69
2021/05/09 06:25:29;;;;;;;8.38;4.53;;;;;;;15.17;48.90;100458.91;1852061;77;22376;-69
2021/05/09 06:28:08;;;;;;;7.28;4.20;;;;;;;15.27;48.79;100463.40;1837320;77;22550;-69
2021/05/09 06:30:47;;;;;;;4.78;3.87;;;;;;;15.51;48.67;100453.22;1814430;77;22365;-69
2021/05/09 06:33:26;;;;;;;6.03;3.90;;;;;;;15.66;48.46;100452.53;1810592;77;23267;-69
2021/05/09 06:36:05;;;;;;;6.70;4.15;;;;;;;15.72;48.35;100455.78;1815736;77;22061;-69
2021/05/09 06:38:44;;;;;;;6.80;4.12;;;;;;;15.74;48.26;100452.37;1808925;78;23190;-69
2021/05/09 06:41:23;;;;;;;12.93;8.20;;;;;;;15.83;48.18;100447.14;1806566;79;22568;-69
2021/05/09 06:44:05;;;;;;;6.12;4.22;;;;;;;15.97;48.12;100442.11;1815660;77;22504;-69
2021/05/09 06:46:43;;;;;;;12.15;6.25;;;;;;;16.26;48.05;100447.09;1815476;77;22343;-69
2021/05/09 06:49:22;;;;;;;15.88;7.80;;;;;;;16.49;48.04;100446.20;1851366;77;22453;-69
2021/05/09 06:52:01;;;;;;;13.08;7.03;;;;;;;16.49;47.93;100445.36;1797381;77;22270;-69
2021/05/09 06:54:39;;;;;;;6.72;4.65;;;;;;;16.67;47.88;100444.25;1815599;77;22381;-69
2021/05/09 06:57:17;;;;;;;7.03;4.10;;;;;;;16.65;47.64;100444.13;1796784;77;22554;-69
2021/05/09 07:00:05;;;;;;;5.42;4.03;;;;;;;16.87;47.63;100444.22;1850351;77;22387;-70
2021/05/09 07:02:44;;;;;;;6.60;4.20;;;;;;;16.98;47.48;100440.89;1852744;77;22779;-70
2021/05/09 07:05:23;;;;;;;12.30;6.95;;;;;;;17.08;47.46;100449.36;1808632;77;22332;-69
2021/05/09 07:08:03;;;;;;;7.87;4.10;;;;;;;17.25;47.38;100448.38;1792960;79;22505;-69
2021/05/09 07:10:42;;;;;;;8.40;5.17;;;;;;;17.29;47.14;100447.75;1815740;77;22429;-70
2021/05/09 07:13:28;;;;;;;11.97;6.67;;;;;;;17.56;47.14;100449.02;1811008;77;38918;-70
2021/05/09 07:16:07;;;;;;;7.67;4.08;;;;;;;17.89;46.67;100455.09;1815032;77;22657;-70
2021/05/09 07:18:46;;;;;;;6.22;4.03;;;;;;;17.76;46.26;100456.52;1815215;77;22380;-70
2021/05/09 07:21:28;;;;;;;4.83;3.25;;;;;;;17.76;45.98;100460.56;1807754;77;22719;-70
2021/05/09 07:24:07;;;;;;;7.00;3.47;;;;;;;17.89;46.03;100460.49;1814838;77;22582;-70
2021/05/09 07:26:52;;;;;;;5.67;2.80;;;;;;;18.23;45.93;100457.37;1835195;77;38806;-70
2021/05/09 07:29:29;;;;;;;5.20;3.30;;;;;;;18.30;45.36;100460.84;1815299;77;22396;-67
2021/05/09 07:32:14;;;;;;;6.72;3.95;;;;;;;18.37;45.27;100460.80;1786535;79;22683;-67
2021/05/09 07:34:53;;;;;;;5.53;3.45;;;;;;;18.53;45.22;100468.92;1814597;77;22337;-70
2021/05/09 07:37:32;;;;;;;4.05;2.77;;;;;;;18.79;45.16;100463.28;1815214;77;22712;-70
2021/05/09 07:40:21;;;;;;;5.93;3.50;;;;;;;18.75;44.87;100464.80;1795375;78;27944;-70
2021/05/09 07:42:59;;;;;;;4.75;3.83;;;;;;;18.90;44.34;100464.74;1819025;77;22588;-70
2021/05/09 07:45:39;;;;;;;4.42;2.60;;;;;;;19.01;44.14;100456.95;1800156;77;22441;-70
2021/05/09 07:48:17;;;;;;;31.80;18.60;;;;;;;18.93;43.92;100460.77;1851562;77;22438;-70
2021/05/09 07:51:03;;;;;;;6.80;4.60;;;;;;;18.92;43.89;100460.48;1851797;77;22508;-70
2021/05/09 07:53:42;;;;;;;3.95;2.65;;;;;;;19.21;43.92;100461.09;1815617;77;22270;-70
2021/05/09 07:56:21;;;;;;;5.00;2.65;;;;;;;19.19;43.69;100459.67;1808909;77;22390;-70
2021/05/09 07:59:01;;;;;;;7.40;3.70;;;;;;;19.29;43.59;100456.75;1809448;77;22671;-70
2021/05/09 08:01:41;;;;;;;4.50;2.60;;;;;;;19.16;43.05;100458.25;1804742;77;22391;-70
2021/05/09 08:04:22;;;;;;;5.03;3.20;;;;;;;19.12;42.99;100454.86;1832882;77;22490;-70
2021/05/09 08:07:07;;;;;;;5.42;2.95;;;;;;;19.37;43.03;100453.75;1831083;77;22541;-70
2021/05/09 08:09:47;;;;;;;3.83;2.60;;;;;;;19.50;42.88;100454.14;1815245;77;22712;-70
2021/05/09 08:12:27;;;;;;;6.95;3.80;;;;;;;19.75;42.85;100451.33;1826743;77;22463;-70
2021/05/09 08:15:07;;;;;;;4.75;3.40;;;;;;;19.83;42.63;100449.14;1849196;76;22464;-70
2021/05/09 08:17:46;;;;;;;3.05;2.22;;;;;;;19.96;42.52;100442.71;1849458;77;22848;-70
2021/05/09 08:20:26;;;;;;;18.15;10.82;;;;;;;19.96;42.29;100442.71;1814004;77;22185;-70
2021/05/09 08:23:05;;;;;;;7.70;4.35;;;;;;;19.97;42.15;100448.95;1806637;77;22807;-67
2021/05/09 08:25:45;;;;;;;6.47;2.90;;;;;;;19.84;41.66;100444.56;1805897;77;22436;-70
2021/05/09 08:28:23;;;;;;;4.58;2.98;;;;;;;19.86;41.70;100442.44;1801203;77;22393;-68
2021/05/09 08:31:02;;;;;;;3.02;2.47;;;;;;;20.10;41.64;100438.75;1814617;77;22476;-68
2021/05/09 08:33:43;;;;;;;6.40;4.08;;;;;;;20.29;41.73;100437.67;1814188;77;22376;-70
2021/05/09 08:36:22;;;;;;;5.53;3.25;;;;;;;20.50;41.81;100435.46;1845505;77;22685;-70
2021/05/09 08:39:08;;;;;;;6.33;2.62;;;;;;;20.67;41.71;100436.42;1809847;78;22455;-70
2021/05/09 08:41:48;;;;;;;4.67;2.80;;;;;;;20.63;41.54;100437.94;1797175;79;22855;-70
2021/05/09 08:44:27;;;;;;;5.30;2.95;;;;;;;20.44;41.30;100438.03;1805482;77;22559;-70
2021/05/09 08:47:36;;;;;;;6.87;3.00;;;;;;;20.39;41.35;100435.22;1835398;77;27853;-70
2021/05/09 08:50:15;;;;;;;6.23;3.10;;;;;;;20.60;40.19;100442.48;1833606;77;27930;-70
2021/05/09 08:52:55;;;;;;;5.90;3.98;;;;;;;20.66;40.33;100437.47;1809475;78;22466;-70
2021/05/09 08:55:34;;;;;;;5.87;3.10;;;;;;;20.64;40.38;100439.08;1843169;77;22591;-70
2021/05/09 08:58:12;;;;;;;6.37;4.62;;;;;;;20.60;40.44;100430.28;1808184;77;22464;-68
2021/05/09 09:00:51;;;;;;;6.25;3.37;;;;;;;20.59;40.53;100425.91;1809818;77;22369;-70
2021/05/09 09:03:37;;;;;;;6.28;3.27;;;;;;;20.80;40.64;100428.05;1850922;77;22105;-70
2021/05/09 09:06:18;;;;;;;6.33;4.20;;;;;;;20.87;40.61;100419.27;1809678;78;22425;-70
2021/05/09 09:08:57;;;;;;;6.30;3.00;;;;;;;20.85;40.59;100422.23;1821597;77;22552;-70
2021/05/09 09:11:37;;;;;;;8.90;5.05;;;;;;;20.52;40.13;100422.49;1803989;78;22430;-69
2021/05/09 09:14:16;;;;;;;4.70;3.30;;;;;;;20.47;40.25;100425.09;1789192;79;22612;-69
2021/05/09 09:17:15;;;;;;;10.03;6.25;;;;;;;20.70;40.39;100422.39;1852177;77;22589;-69
2021/05/09 09:20:16;;;;;;;5.20;2.93;;;;;;;20.92;40.48;100413.97;1794985;78;27977;-67
2021/05/09 09:22:59;;;;;;;6.65;4.58;;;;;;;21.12;40.26;100419.86;1851935;77;22730;-69
2021/05/09 09:25:38;;;;;;;5.00;3.45;;;;;;;21.05;40.28;100415.06;1852255;77;23067;-69
2021/05/09 09:28:18;;;;;;;9.90;4.92;;;;;;;20.86;40.22;100410.86;1810848;78;22350;-67
2021/05/09 09:30:57;;;;;;;5.75;4.20;;;;;;;20.70;40.02;100411.02;1815553;77;22665;-67
2021/05/09 09:33:50;;;;;;;8.68;4.35;;;;;;;20.61;39.88;100405.67;1811076;78;23064;-67
2021/05/09 09:36:29;;;;;;;8.45;3.72;;;;;;;20.63;39.83;100401.36;1815601;77;22422;-69
2021/05/09 09:39:09;;;;;;;4.53;3.33;;;;;;;20.77;39.91;100395.47;1810481;78;22581;-69
2021/05/09 09:41:49;;;;;;;4.70;3.08;;;;;;;20.90;39.88;100393.03;1815277;77;22210;-69
2021/05/09 09:44:28;;;;;;;10.93;5.85;;;;;;;21.08;39.96;100392.06;1815645;77;22706;-69
2021/05/09 09:47:07;;;;;;;5.20;3.00;;;;;;;21.25;39.90;100390.31;1815308;77;22260;-66
2021/05/09 09:49:46;;;;;;;5.17;3.40;;;;;;;21.11;39.77;100392.44;1811093;77;23292;-69
2021/05/09 09:52:29;;;;;;;3.37;2.60;;;;;;;21.21;39.72;100381.83;1852223;77;22253;-69
2021/05/09 09:55:14;;;;;;;6.53;3.35;;;;;;;21.35;39.71;100383.21;1815315;77;22418;-69
2021/05/09 09:58:03;;;;;;;4.37;2.77;;;;;;;21.32;39.48;100380.95;1789813;77;22479;-69
2021/05/09 10:00:48;;;;;;;9.08;3.95;;;;;;;21.39;39.35;100376.21;1790628;77;22551;-69
2021/05/09 10:03:26;;;;;;;4.67;2.52;;;;;;;21.53;39.43;100385.45;1793736;77;22676;-69
2021/05/09 10:06:06;;;;;;;4.97;3.33;;;;;;;21.54;39.33;100385.72;1815716;77;22321;-69
2021/05/09 10:08:45;;;;;;;2.87;1.95;;;;;;;21.48;39.15;100375.31;1798686;79;22437;-69
2021/05/09 10:11:24;;;;;;;4.25;1.85;;;;;;;21.51;39.12;100374.82;1801685;77;22441;-69
2021/05/09 10:14:04;;;;;;;6.10;2.27;;;;;;;21.63;39.05;100380.21;1835374;77;22774;-70
2021/05/09 10:16:47;;;;;;;3.35;1.85;;;;;;;21.66;39.07;100375.66;1800377;77;22614;-69
2021/05/09 10:19:26;;;;;;;2.10;1.60;;;;;;;21.71;39.01;100382.55;1813308;77;22485;-69
2021/05/09 10:22:26;;;;;;;4.12;1.90;;;;;;;21.88;38.86;100377.97;1808571;77;22146;-69
2021/05/09 10:25:06;;;;;;;4.42;3.20;;;;;;;21.93;38.74;100371.29;1806187;77;22433;-69
2021/05/09 10:27:45;;;;;;;9.05;4.80;;;;;;;22.06;38.55;100373.68;1846564;77;22423;-70
2021/05/09 10:30:29;;;;;;;4.78;2.77;;;;;;;22.07;38.35;100367.19;1850610;77;22184;-70
2021/05/09 10:33:08;;;;;;;2.58;1.40;;;;;;;22.06;38.21;100367.45;1805981;78;22430;-70
2021/05/09 10:35:51;;;;;;;3.85;2.55;;;;;;;22.06;37.96;100357.38;1791275;79;22267;-70
2021/05/09 10:38:29;;;;;;;3.80;2.60;;;;;;;22.07;37.76;100355.50;1791815;77;23056;-70
2021/05/09 10:41:10;;;;;;;9.40;4.22;;;;;;;22.17;37.74;100359.73;1807196;77;22417;-70
2021/05/09 10:43:51;;;;;;;3.00;1.32;;;;;;;22.21;37.44;100349.49;1810721;77;22435;-67
2021/05/09 10:46:53;;;;;;;4.70;2.52;;;;;;;22.31;37.18;100350.19;1815515;77;22277;-67
2021/05/09 10:50:21;;;;;;;3.90;1.72;;;;;;;22.29;36.90;100353.70;1850778;77;22651;-70
2021/05/09 10:52:59;;;;;;;2.62;1.27;;;;;;;22.20;36.62;100353.27;1815963;77;22430;-70
2021/05/09 10:55:45;;;;;;;3.15;1.40;;;;;;;22.12;36.63;100350.16;1808573;77;22446;-70
2021/05/09 10:58:51;;;;;;;1.65;1.15;;;;;;;22.22;36.70;100353.87;1815250;77;22455;-70
2021/05/09 11:01:32;;;;;;;2.05;1.22;;;;;;;22.24;36.60;100345.45;1816044;77;22631;-70
2021/05/09 11:04:17;;;;;;;1.90;1.22;;;;;;;22.31;36.73;100337.42;1852181;77;22730;-70
2021/05/09 11:06:55;;;;;;;2.58;1.52;;;;;;;22.42;36.80;100323.45;1816173;77;22454;-67
2021/05/09 11:09:42;;;;;;;3.80;1.20;;;;;;;22.44;36.58;100330.84;1811366;77;22614;-69
2021/05/09 11:12:20;;;;;;;3.40;1.42;;;;;;;22.53;36.67;100333.41;1811144;78;22569;-67
2021/05/09 11:15:12;;;;;;;3.92;1.40;;;;;;;22.64;36.59;100320.25;1852607;77;22821;-67
2021/05/09 11:17:52;;;;;;;2.87;1.35;;;;;;;22.73;36.73;100316.61;1852348;77;22370;-70
2021/05/09 11:20:31;;;;;;;2.15;1.50;;;;;;;22.69;36.60;100312.75;1852681;77;22144;-70
2021/05/09 11:23:15;;;;;;;4.42;1.27;;;;;;;22.73;36.46;100303.02;1852342;77;22421;-67
2021/05/09 11:25:54;;;;;;;1.62;1.10;;;;;;;22.73;36.36;100308.45;1815890;77;22387;-67
2021/05/09 11:28:34;;;;;;;1.45;1.10;;;;;;;22.79;36.33;100304.72;1815745;77;22110;-70
2021/05/09 11:31:28;;;;;;;3.55;2.12;;;;;;;22.92;36.42;100304.34;1815973;77;22965;-68
2021/05/09 11:34:08;;;;;;;2.17;1.52;;;;;;;22.86;36.29;100297.20;1852626;77;22298;-67
2021/05/09 11:36:49;;;;;;;4.55;2.22;;;;;;;22.95;36.25;100295.66;1815942;77;22998;-67
2021/05/09 11:39:35;;;;;;;1.77;1.22;;;;;;;22.88;36.01;100285.52;1815907;77;22505;-70
2021/05/09 11:42:16;;;;;;;5.53;2.00;;;;;;;22.93;36.05;100278.79;1842323;77;27751;-70
2021/05/09 11:44:59;;;;;;;3.62;1.90;;;;;;;23.03;35.61;100276.19;1815664;77;22457;-70
2021/05/09 11:47:39;;;;;;;2.52;1.52;;;;;;;23.04;35.69;100283.28;1815899;77;22353;-70
2021/05/09 11:50:18;;;;;;;1.47;1.10;;;;;;;23.00;35.48;100282.14;1811317;78;22939;-70
2021/05/09 11:52:57;;;;;;;1.05;0.95;;;;;;;23.06;35.43;100274.84;1811186;77;22843;-70
2021/05/09 11:55:37;;;;;;;2.85;0.88;;;;;;;23.12;35.44;100270.56;1792765;77;22456;-70
2021/05/09 11:58:16;;;;;;;2.72;1.30;;;;;;;23.09;35.27;100272.44;1811346;78;22911;-70
2021/05/09 12:00:55;;;;;;;4.05;2.40;;;;;;;23.11;35.09;100275.75;1815777;77;22390;-67
2021/05/09 12:03:33;;;;;;;2.42;1.27;;;;;;;23.13;34.97;100270.03;1816152;77;22935;-67
2021/05/09 12:06:11;;;;;;;1.98;1.50;;;;;;;23.04;34.94;100258.80;1852313;77;23134;-70
2021/05/09 12:08:52;;;;;;;3.62;1.98;;;;;;;23.01;34.87;100257.92;1815614;77;22323;-68
2021/05/09 12:11:33;;;;;;;2.77;1.67;;;;;;;23.10;34.92;100256.41;1811185;78;22407;-67
2021/05/09 12:14:13;;;;;;;2.20;1.40;;;;;;;23.20;34.88;100256.52;1815584;77;23046;-70
2021/05/09 12:16:59;;;;;;;3.07;1.60;;;;;;;23.20;34.68;100249.71;1836471;77;27828;-70
2021/05/09 12:19:38;;;;;;;4.30;1.17;;;;;;;23.24;33.84;100248.13;1815944;77;22456;-67
2021/05/09 12:22:17;;;;;;;2.30;1.40;;;;;;;23.21;33.69;100244.56;1815759;77;22308;-67
2021/05/09 12:25:02;;;;;;;1.62;1.00;;;;;;;23.28;33.56;100251.16;1852134;77;22358;-67
2021/05/09 12:27:46;;;;;;;1.62;1.10;;;;;;;23.43;33.72;100238.27;1816086;77;22066;-70
2021/05/09 12:30:29;;;;;;;1.37;0.90;;;;;;;23.40;33.69;100246.36;1815956;77;22681;-68